createdAt,value
2024-02-15T00:00:23.858Z,-8.54
2024-02-15T00:02:51.277Z,-8.60
2024-02-15T00:05:18.626Z,-8.68
2024-02-15T00:07:45.917Z,-8.65
2024-02-15T00:10:13.228Z,-8.69
2024-02-15T00:12:41.010Z,-8.68
2024-02-15T00:15:08.522Z,-8.68
2024-02-15T00:17:37.098Z,-8.61
2024-02-15T00:20:10.868Z,-8.61
2024-02-15T00:22:38.401Z,-8.47
2024-02-15T00:25:07.058Z,-8.56
2024-02-15T00:27:35.992Z,-8.72
2024-02-15T00:30:04.074Z,-8.81
2024-02-15T00:32:35.050Z,-8.80
2024-02-15T00:35:02.889Z,-8.86
2024-02-15T00:37:31.329Z,-8.89
2024-02-15T00:39:58.730Z,-8.87
2024-02-15T00:42:27.077Z,-8.84
2024-02-15T00:44:54.427Z,-8.86
2024-02-15T00:47:22.299Z,-8.91
2024-02-15T00:49:51.441Z,-8.97
2024-02-15T00:52:20.052Z,-8.89
2024-02-15T00:54:47.573Z,-8.88
2024-02-15T00:57:14.926Z,-8.86
2024-02-15T00:59:42.358Z,-8.96
2024-02-15T01:02:09.622Z,-8.89
2024-02-15T01:04:36.998Z,-8.91
2024-02-15T01:07:04.507Z,-8.89
2024-02-15T01:09:31.969Z,-8.82
2024-02-15T01:11:59.814Z,-8.87
2024-02-15T01:14:31.250Z,-8.97
2024-02-15T01:16:58.831Z,-9.00
2024-02-15T01:19:26.173Z,-8.87
2024-02-15T01:21:54.807Z,-8.96
2024-02-15T01:24:22.249Z,-9.05
2024-02-15T01:26:50.713Z,-9.07
2024-02-15T01:29:18.028Z,-9.06
2024-02-15T01:31:45.841Z,-9.09
2024-02-15T01:34:13.244Z,-9.13
2024-02-15T01:36:40.549Z,-9.09
2024-02-15T01:39:08.811Z,-9.27
2024-02-15T01:41:36.342Z,-9.16
2024-02-15T01:44:04.069Z,-9.12
2024-02-15T01:46:31.510Z,-9.12
2024-02-15T01:48:58.999Z,-9.08
2024-02-15T01:51:28.048Z,-8.96
2024-02-15T01:53:56.387Z,-9.08
2024-02-15T01:56:24.936Z,-9.05
2024-02-15T01:58:52.726Z,-9.04
2024-02-15T02:01:22.342Z,-8.94
2024-02-15T02:03:49.731Z,-8.93
2024-02-15T02:06:17.341Z,-8.94
2024-02-15T02:08:44.740Z,-8.97
2024-02-15T02:11:12.288Z,-8.97
2024-02-15T02:13:39.556Z,-9.05
2024-02-15T02:16:25.162Z,-9.01
2024-02-15T02:18:52.624Z,-8.98
2024-02-15T02:21:20.002Z,-8.92
2024-02-15T02:23:51.148Z,-9.01
2024-02-15T02:26:18.419Z,-9.10
2024-02-15T02:28:45.845Z,-9.08
2024-02-15T02:31:13.111Z,-9.02
2024-02-15T02:33:40.656Z,-8.93
2024-02-15T02:36:13.371Z,-8.94
2024-02-15T02:38:41.361Z,-9.08
2024-02-15T02:41:08.645Z,-8.95
2024-02-15T02:43:36.177Z,-8.93
2024-02-15T02:46:06.017Z,-8.92
2024-02-15T02:48:33.611Z,-8.86
2024-02-15T02:51:01.047Z,-8.89
2024-02-15T02:53:28.390Z,-8.98
2024-02-15T02:55:57.381Z,-8.94
2024-02-15T02:58:24.964Z,-8.88
2024-02-15T03:00:53.136Z,-8.91
2024-02-15T03:03:20.460Z,-8.96
2024-02-15T03:05:47.876Z,-9.17
2024-02-15T03:08:15.621Z,-9.11
2024-02-15T03:10:44.110Z,-8.98
2024-02-15T03:13:11.488Z,-8.99
2024-02-15T03:15:38.970Z,-9.05
2024-02-15T03:18:08.512Z,-8.93
2024-02-15T03:20:38.341Z,-8.99
2024-02-15T03:23:05.710Z,-9.09
2024-02-15T03:25:35.844Z,-9.20
2024-02-15T03:28:04.409Z,-9.12
2024-02-15T03:30:32.771Z,-9.05
2024-02-15T03:33:00.357Z,-9.02
2024-02-15T03:35:30.135Z,-9.07
2024-02-15T03:37:57.715Z,-8.99
2024-02-15T03:40:27.988Z,-9.10
2024-02-15T03:42:55.532Z,-9.22
2024-02-15T03:45:27.220Z,-9.19
2024-02-15T03:47:55.981Z,-9.28
2024-02-15T03:50:24.673Z,-9.33
2024-02-15T03:52:52.412Z,-9.25
2024-02-15T03:55:20.031Z,-9.27
2024-02-15T03:57:48.024Z,-9.18
2024-02-15T04:00:22.272Z,-9.19
2024-02-15T04:02:51.107Z,-9.21
2024-02-15T04:05:20.315Z,-9.16
2024-02-15T04:07:48.069Z,-9.09
2024-02-15T04:10:15.519Z,-9.10
2024-02-15T04:12:54.929Z,-9.11
2024-02-15T04:15:22.474Z,-9.14
2024-02-15T04:17:54.525Z,-9.21
2024-02-15T04:20:22.618Z,-9.24
2024-02-15T04:22:51.491Z,-9.27
2024-02-15T04:25:21.378Z,-9.28
2024-02-15T04:27:49.125Z,-9.36
2024-02-15T04:30:19.564Z,-9.44
2024-02-15T04:32:49.377Z,-9.53
2024-02-15T04:35:16.857Z,-9.61
2024-02-15T04:37:44.205Z,-9.74
2024-02-15T04:40:12.717Z,-9.83
2024-02-15T04:42:42.285Z,-9.84
2024-02-15T04:45:11.826Z,-9.83
2024-02-15T04:47:53.918Z,-9.72
2024-02-15T04:50:22.252Z,-9.65
2024-02-15T04:52:51.228Z,-9.73
2024-02-15T04:55:19.463Z,-9.74
2024-02-15T04:57:50.478Z,-9.74
2024-02-15T05:00:22.393Z,-9.74
2024-02-15T05:02:51.033Z,-9.80
2024-02-15T05:05:19.204Z,-9.84
2024-02-15T05:07:46.514Z,-10.01
2024-02-15T05:10:14.191Z,-10.09
2024-02-15T05:12:41.884Z,-10.02
2024-02-15T05:15:13.770Z,-10.04
2024-02-15T05:17:45.161Z,-9.96
2024-02-15T05:20:14.955Z,-10.05
2024-02-15T05:22:50.958Z,-10.02
2024-02-15T05:25:27.730Z,-10.01
2024-02-15T05:27:56.444Z,-10.00
2024-02-15T05:30:24.953Z,-9.86
2024-02-15T05:32:54.867Z,-9.95
2024-02-15T05:35:22.993Z,-10.01
2024-02-15T05:37:50.383Z,-10.17
2024-02-15T05:40:19.022Z,-10.12
2024-02-15T05:42:47.366Z,-10.05
2024-02-15T05:45:26.954Z,-10.06
2024-02-15T05:47:54.910Z,-10.00
2024-02-15T05:50:22.855Z,-10.03
2024-02-15T05:52:50.412Z,-10.03
2024-02-15T05:55:18.558Z,-10.04
2024-02-15T05:57:46.422Z,-10.00
2024-02-15T06:00:21.742Z,-9.88
2024-02-15T06:02:51.654Z,-9.84
2024-02-15T06:05:19.979Z,-9.70
2024-02-15T06:07:48.280Z,-9.67
2024-02-15T06:10:16.531Z,-9.84
2024-02-15T06:12:44.549Z,-9.73
2024-02-15T06:15:17.188Z,-9.70
2024-02-15T06:17:48.749Z,-9.70
2024-02-15T06:20:19.531Z,-9.71
2024-02-15T06:23:07.480Z,-9.67
2024-02-15T06:25:36.210Z,-9.66
2024-02-15T06:28:14.313Z,-9.63
2024-02-15T06:31:00.385Z,-9.59
2024-02-15T06:33:46.137Z,-9.41
2024-02-15T06:36:32.195Z,-9.32
2024-02-15T06:39:18.022Z,-9.27
2024-02-15T06:41:45.371Z,-9.33
2024-02-15T06:44:13.273Z,-9.30
2024-02-15T06:46:40.679Z,-9.34
2024-02-15T06:49:08.204Z,-9.35
2024-02-15T06:51:35.652Z,-9.28
2024-02-15T06:54:04.432Z,-9.36
2024-02-15T06:56:32.084Z,-9.34
2024-02-15T06:58:59.984Z,-9.29
2024-02-15T07:01:27.409Z,-9.33
2024-02-15T07:03:57.657Z,-9.35
2024-02-15T07:06:28.818Z,-9.30
2024-02-15T07:08:58.085Z,-9.18
2024-02-15T07:11:25.479Z,-9.14
2024-02-15T07:13:56.165Z,-9.04
2024-02-15T07:16:23.786Z,-8.91
2024-02-15T07:18:51.621Z,-8.82
2024-02-15T07:21:22.457Z,-8.88
2024-02-15T07:23:49.874Z,-9.02
2024-02-15T07:26:17.943Z,-9.07
2024-02-15T07:28:47.413Z,-9.04
2024-02-15T07:31:15.896Z,-8.83
2024-02-15T07:33:44.630Z,-8.63
2024-02-15T07:36:12.212Z,-8.55
2024-02-15T07:38:39.533Z,-8.55
2024-02-15T07:41:06.855Z,-8.40
2024-02-15T07:43:34.713Z,-8.33
2024-02-15T07:46:02.130Z,-8.10
2024-02-15T07:48:29.795Z,-8.05
2024-02-15T07:50:59.638Z,-8.16
2024-02-15T07:53:27.044Z,-8.29
2024-02-15T07:55:54.302Z,-8.09
2024-02-15T07:58:22.265Z,-8.20
2024-02-15T08:00:49.633Z,-8.38
2024-02-15T08:03:19.447Z,-8.67
2024-02-15T08:05:46.906Z,-8.80
2024-02-15T08:08:14.259Z,-8.68
2024-02-15T08:10:43.261Z,-8.78
2024-02-15T08:13:10.574Z,-8.68
2024-02-15T08:15:37.827Z,-8.77
2024-02-15T08:18:07.296Z,-8.86
2024-02-15T08:20:35.887Z,-8.83
2024-02-15T08:23:03.508Z,-8.91
2024-02-15T08:25:32.593Z,-9.03
2024-02-15T08:27:59.924Z,-9.01
2024-02-15T08:30:29.017Z,-9.02
2024-02-15T08:32:56.667Z,-8.85
2024-02-15T08:35:24.342Z,-8.81
2024-02-15T08:37:54.077Z,-8.70
2024-02-15T08:40:26.222Z,-8.62
2024-02-15T08:42:53.862Z,-8.47
2024-02-15T08:45:21.740Z,-8.71
2024-02-15T08:47:51.309Z,-8.64
2024-02-15T08:50:19.086Z,-8.63
2024-02-15T08:52:48.153Z,-8.57
2024-02-15T08:55:16.043Z,-8.29
2024-02-15T08:57:45.406Z,-8.32
2024-02-15T09:00:17.616Z,-8.26
2024-02-15T09:02:45.991Z,-8.25
2024-02-15T09:05:16.568Z,-8.18
2024-02-15T09:07:44.778Z,-8.18
2024-02-15T09:10:12.715Z,-8.20
2024-02-15T09:12:41.254Z,-8.21
2024-02-15T09:15:09.479Z,-8.17
2024-02-15T09:17:43.079Z,-8.36
2024-02-15T09:20:15.941Z,-8.36
2024-02-15T09:22:44.241Z,-8.47
2024-02-15T09:25:11.840Z,-8.42
2024-02-15T09:27:39.158Z,-8.64
2024-02-15T09:30:10.924Z,-8.75
2024-02-15T09:32:38.550Z,-8.57
2024-02-15T09:35:10.184Z,-8.56
2024-02-15T09:37:41.043Z,-8.76
2024-02-15T09:40:13.121Z,-8.87
2024-02-15T09:42:41.688Z,-8.86
2024-02-15T09:45:14.172Z,-9.10
2024-02-15T09:47:42.341Z,-8.84
2024-02-15T09:50:17.659Z,-8.81
2024-02-15T09:52:45.873Z,-8.76
2024-02-15T09:55:14.592Z,-8.74
2024-02-15T09:57:43.455Z,-8.82
2024-02-15T10:00:15.020Z,-8.86
2024-02-15T10:02:46.049Z,-8.82
2024-02-15T10:05:14.086Z,-8.77
2024-02-15T10:07:45.873Z,-8.75
2024-02-15T10:10:20.286Z,-8.64
2024-02-15T10:12:57.685Z,-8.70
2024-02-15T10:15:46.269Z,-8.64
2024-02-15T10:18:14.421Z,-8.50
2024-02-15T10:20:46.238Z,-8.42
2024-02-15T10:23:19.956Z,-8.38
2024-02-15T10:25:48.552Z,-8.50
2024-02-15T10:28:21.221Z,-8.69
2024-02-15T10:30:50.098Z,-8.65
2024-02-15T10:33:22.093Z,-8.62
2024-02-15T10:35:49.535Z,-8.38
2024-02-15T10:38:19.401Z,-8.39
2024-02-15T10:40:48.080Z,-8.35
2024-02-15T10:43:17.920Z,-8.27
2024-02-15T10:45:46.203Z,-8.23
2024-02-15T10:48:14.778Z,-8.17
2024-02-15T10:50:43.577Z,-8.18
2024-02-15T10:53:27.656Z,-8.32
2024-02-15T10:56:01.217Z,-8.34
2024-02-15T10:58:33.319Z,-8.27
2024-02-15T11:01:00.808Z,-8.13
2024-02-15T11:03:32.543Z,-7.97
2024-02-15T11:06:02.284Z,-7.88
2024-02-15T11:08:30.015Z,-7.81
2024-02-15T11:11:00.333Z,-7.62
2024-02-15T11:13:28.647Z,-7.52
2024-02-15T11:15:55.862Z,-7.45
2024-02-15T11:18:41.835Z,-7.46
2024-02-15T11:21:09.252Z,-7.59
2024-02-15T11:23:37.487Z,-7.58
2024-02-15T11:26:06.329Z,-7.49
2024-02-15T11:28:35.290Z,-7.57
2024-02-15T11:31:04.396Z,-7.65
2024-02-15T11:33:38.598Z,-7.82
2024-02-15T11:36:11.165Z,-7.89
2024-02-15T11:38:42.484Z,-7.75
2024-02-15T11:41:11.868Z,-7.78
2024-02-15T11:43:58.669Z,-7.86
2024-02-15T11:46:26.944Z,-8.06
2024-02-15T11:48:58.103Z,-8.18
2024-02-15T11:51:26.787Z,-8.06
2024-02-15T11:54:07.213Z,-7.91
2024-02-15T11:56:53.191Z,-7.94
2024-02-15T11:59:30.690Z,-7.91
2024-02-15T12:02:16.668Z,-7.90
2024-02-15T12:05:03.118Z,-7.93
2024-02-15T12:07:49.283Z,-7.89
2024-02-15T12:10:36.253Z,-7.88
2024-02-15T12:13:22.524Z,-7.99
2024-02-15T12:16:18.023Z,-8.32
2024-02-15T12:18:47.536Z,-8.36
2024-02-15T12:21:18.481Z,-8.40
2024-02-15T12:23:47.001Z,-8.35
2024-02-15T12:26:15.924Z,-8.27
2024-02-15T12:28:46.478Z,-8.19
2024-02-15T12:31:15.865Z,-8.04
2024-02-15T12:33:43.482Z,-7.96
2024-02-15T12:36:11.198Z,-8.06
2024-02-15T12:38:39.582Z,-7.98
2024-02-15T12:41:22.370Z,-8.00
2024-02-15T12:43:55.866Z,-7.94
2024-02-15T12:46:23.582Z,-7.97
2024-02-15T12:48:51.237Z,-8.01
2024-02-15T12:51:19.402Z,-8.03
2024-02-15T12:53:47.021Z,-7.87
2024-02-15T12:56:21.065Z,-7.76
2024-02-15T12:58:48.366Z,-7.77
2024-02-15T13:01:15.631Z,-7.77
2024-02-15T13:03:43.064Z,-7.80
2024-02-15T13:06:10.401Z,-7.76
2024-02-15T13:08:37.783Z,-7.87
2024-02-15T13:11:05.305Z,-7.89
2024-02-15T13:13:32.753Z,-7.78
2024-02-15T13:16:00.276Z,-7.73
2024-02-15T13:18:29.818Z,-7.67
2024-02-15T13:20:59.119Z,-7.69
2024-02-15T13:23:27.282Z,-7.72
2024-02-15T13:25:57.943Z,-7.76
2024-02-15T13:28:26.216Z,-7.70
2024-02-15T13:30:55.874Z,-7.70
2024-02-15T13:33:23.801Z,-7.69
2024-02-15T13:35:51.518Z,-7.78
2024-02-15T13:38:25.069Z,-7.96
2024-02-15T13:40:55.699Z,-7.93
2024-02-15T13:43:22.988Z,-7.84
2024-02-15T13:45:50.405Z,-7.82
2024-02-15T13:48:18.245Z,-7.77
2024-02-15T13:50:46.394Z,-7.79
2024-02-15T13:53:15.391Z,-8.01
2024-02-15T13:55:42.936Z,-7.92
2024-02-15T13:58:14.101Z,-8.00
2024-02-15T14:00:43.909Z,-7.95
2024-02-15T14:03:12.464Z,-7.92
2024-02-15T14:05:42.778Z,-7.78
2024-02-15T14:08:13.415Z,-7.64
2024-02-15T14:10:40.744Z,-7.56
2024-02-15T14:13:12.817Z,-7.63
2024-02-15T14:15:41.052Z,-7.74
2024-02-15T14:18:14.829Z,-7.71
2024-02-15T14:20:45.678Z,-7.74
2024-02-15T14:23:16.434Z,-7.80
2024-02-15T14:25:44.214Z,-7.70
2024-02-15T14:28:11.720Z,-7.71
2024-02-15T14:30:59.038Z,-7.68
2024-02-15T14:33:33.427Z,-7.62
2024-02-15T14:36:02.572Z,-7.60
2024-02-15T14:38:30.802Z,-7.60
2024-02-15T14:41:01.028Z,-7.50
2024-02-15T14:43:29.891Z,-7.56
2024-02-15T14:45:58.416Z,-7.56
2024-02-15T14:48:27.059Z,-7.59
2024-02-15T14:50:55.104Z,-7.53
2024-02-15T14:53:23.829Z,-7.50
2024-02-15T14:55:53.040Z,-7.50
2024-02-15T14:58:21.282Z,-7.45
2024-02-15T15:00:49.253Z,-7.38
2024-02-15T15:03:18.246Z,-7.40
2024-02-15T15:06:04.995Z,-7.40
2024-02-15T15:08:51.631Z,-7.39
2024-02-15T15:11:38.190Z,-7.29
2024-02-15T15:14:06.403Z,-7.30
2024-02-15T15:16:35.438Z,-7.29
2024-02-15T15:19:03.762Z,-7.21
2024-02-15T15:21:31.387Z,-7.24
2024-02-15T15:23:58.845Z,-7.29
2024-02-15T15:26:26.373Z,-7.29
2024-02-15T15:28:53.735Z,-7.24
2024-02-15T15:31:21.682Z,-7.19
2024-02-15T15:33:53.990Z,-7.22
2024-02-15T15:36:23.379Z,-7.19
2024-02-15T15:38:51.616Z,-7.29
2024-02-15T15:41:19.842Z,-7.32
2024-02-15T15:43:47.617Z,-7.19
2024-02-15T15:46:16.084Z,-7.19
2024-02-15T15:48:45.054Z,-7.23
2024-02-15T15:51:13.845Z,-7.33
2024-02-15T15:53:41.711Z,-7.40
2024-02-15T15:56:09.277Z,-7.34
2024-02-15T15:58:36.888Z,-7.35
2024-02-15T16:01:05.644Z,-7.31
2024-02-15T16:03:33.628Z,-7.28
2024-02-15T16:06:01.319Z,-7.22
2024-02-15T16:08:28.745Z,-7.43
2024-02-15T16:10:58.168Z,-7.49
2024-02-15T16:13:27.097Z,-7.66
2024-02-15T16:15:56.239Z,-7.75
2024-02-15T16:18:25.050Z,-7.84
2024-02-15T16:20:55.115Z,-7.78
2024-02-15T16:23:24.088Z,-7.63
2024-02-15T16:25:54.659Z,-7.63
2024-02-15T16:28:21.958Z,-7.65
2024-02-15T16:30:49.908Z,-7.69
2024-02-15T16:33:17.597Z,-7.76
2024-02-15T16:35:47.183Z,-7.77
2024-02-15T16:38:17.469Z,-7.93
2024-02-15T16:40:44.817Z,-7.95
2024-02-15T16:43:12.128Z,-7.84
2024-02-15T16:45:40.809Z,-7.74
2024-02-15T16:48:08.526Z,-7.79
2024-02-15T16:50:36.723Z,-7.78
2024-02-15T16:53:04.399Z,-7.72
2024-02-15T16:55:33.489Z,-7.70
2024-02-15T16:58:04.931Z,-7.84
2024-02-15T17:00:33.709Z,-8.05
2024-02-15T17:03:01.927Z,-7.98
2024-02-15T17:05:29.849Z,-8.04
2024-02-15T17:07:57.700Z,-7.94
2024-02-15T17:10:28.650Z,-7.87
2024-02-15T17:12:56.112Z,-7.96
2024-02-15T17:15:27.969Z,-7.81
2024-02-15T17:17:56.382Z,-7.73
2024-02-15T17:20:26.994Z,-7.69
2024-02-15T17:22:54.970Z,-7.73
2024-02-15T17:25:26.653Z,-7.71
2024-02-15T17:27:57.037Z,-7.74
2024-02-15T17:30:25.560Z,-7.73
2024-02-15T17:32:53.928Z,-7.89
2024-02-15T17:35:22.720Z,-7.83
2024-02-15T17:37:50.656Z,-7.80
2024-02-15T17:40:38.987Z,-7.86
2024-02-15T17:43:33.383Z,-7.84
2024-02-15T17:46:05.967Z,-8.04
2024-02-15T17:48:48.517Z,-8.05
2024-02-15T17:51:18.995Z,-7.92
2024-02-15T17:53:47.646Z,-7.89
2024-02-15T17:56:17.895Z,-7.92
2024-02-15T17:58:48.977Z,-7.87
2024-02-15T18:01:16.935Z,-7.75
2024-02-15T18:03:56.126Z,-7.79
2024-02-15T18:06:26.514Z,-7.70
2024-02-15T18:08:56.884Z,-7.65
2024-02-15T18:11:45.835Z,-7.62
2024-02-15T18:14:28.207Z,-7.64
2024-02-15T18:16:55.524Z,-7.77
2024-02-15T18:19:23.116Z,-7.76
2024-02-15T18:21:59.903Z,-7.73
2024-02-15T18:24:37.278Z,-7.85
2024-02-15T18:27:05.034Z,-7.89
2024-02-15T18:29:35.232Z,-7.91
2024-02-15T18:32:12.033Z,-7.95
2024-02-15T18:34:39.398Z,-7.94
2024-02-15T18:37:08.360Z,-7.86
2024-02-15T18:39:35.694Z,-7.82
2024-02-15T18:42:12.167Z,-7.87
2024-02-15T18:44:39.605Z,-7.84
2024-02-15T18:47:06.861Z,-7.81
2024-02-15T18:49:36.947Z,-7.81
2024-02-15T18:52:08.390Z,-7.81
2024-02-15T18:54:38.971Z,-7.89
2024-02-15T18:57:06.517Z,-7.95
2024-02-15T18:59:35.731Z,-7.84
2024-02-15T19:02:36.421Z,-7.80
2024-02-15T19:05:12.732Z,-7.68
2024-02-15T19:07:48.499Z,-7.64
2024-02-15T19:10:34.360Z,-7.59
2024-02-15T19:13:05.071Z,-7.58
2024-02-15T19:15:33.632Z,-7.59
2024-02-15T19:18:05.262Z,-7.62
2024-02-15T19:20:34.447Z,-7.69
2024-02-15T19:23:01.791Z,-7.70
2024-02-15T19:25:29.145Z,-7.63
2024-02-15T19:27:59.465Z,-7.76
2024-02-15T19:30:32.851Z,-7.78
2024-02-15T19:33:00.347Z,-7.66
2024-02-15T19:35:28.022Z,-7.74
2024-02-15T19:38:10.692Z,-7.87
2024-02-15T19:40:43.288Z,-7.89
2024-02-15T19:43:22.785Z,-7.83
2024-02-15T19:45:57.034Z,-7.72
2024-02-15T19:48:24.930Z,-7.72
2024-02-15T19:50:52.330Z,-7.67
2024-02-15T19:53:22.374Z,-7.59
2024-02-15T19:55:50.904Z,-7.53
2024-02-15T19:58:36.685Z,-7.55
2024-02-15T20:01:04.127Z,-7.61
2024-02-15T20:03:33.390Z,-7.64
2024-02-15T20:06:01.143Z,-7.61
2024-02-15T20:08:29.613Z,-7.54
2024-02-15T20:10:57.514Z,-7.46
2024-02-15T20:13:25.042Z,-7.43
2024-02-15T20:15:54.534Z,-7.39
2024-02-15T20:18:22.187Z,-7.36
2024-02-15T20:20:50.231Z,-7.41
2024-02-15T20:23:17.654Z,-7.37
2024-02-15T20:25:47.853Z,-7.40
2024-02-15T20:28:15.285Z,-7.42
2024-02-15T20:30:43.723Z,-7.45
2024-02-15T20:33:15.755Z,-7.46
2024-02-15T20:35:43.486Z,-7.45
2024-02-15T20:38:11.150Z,-7.38
2024-02-15T20:40:38.747Z,-7.37
2024-02-15T20:43:06.793Z,-7.39
2024-02-15T20:45:34.091Z,-7.40
2024-02-15T20:48:01.501Z,-7.38
2024-02-15T20:50:30.686Z,-7.38
2024-02-15T20:52:58.254Z,-7.39
2024-02-15T20:55:25.603Z,-7.41
2024-02-15T20:57:53.288Z,-7.38
2024-02-15T21:00:20.644Z,-7.44
2024-02-15T21:02:48.109Z,-7.40
2024-02-15T21:05:15.582Z,-7.42
2024-02-15T21:07:43.398Z,-7.43
2024-02-15T21:10:13.782Z,-7.46
2024-02-15T21:12:41.374Z,-7.43
2024-02-15T21:15:10.873Z,-7.35
2024-02-15T21:17:40.117Z,-7.26
2024-02-15T21:20:13.325Z,-7.38
2024-02-15T21:22:40.888Z,-7.42
2024-02-15T21:25:08.206Z,-7.41
2024-02-15T21:27:35.544Z,-7.38
2024-02-15T21:30:06.034Z,-7.36
2024-02-15T21:32:36.382Z,-7.29
2024-02-15T21:35:04.341Z,-7.29
2024-02-15T21:37:32.886Z,-7.31
2024-02-15T21:40:00.283Z,-7.39
2024-02-15T21:42:28.124Z,-7.40
2024-02-15T21:44:56.361Z,-7.42
2024-02-15T21:47:23.741Z,-7.46
2024-02-15T21:49:51.483Z,-7.43
2024-02-15T21:52:19.006Z,-7.51
2024-02-15T21:54:46.492Z,-7.57
2024-02-15T21:57:15.919Z,-7.54
2024-02-15T21:59:43.193Z,-7.47
2024-02-15T22:02:12.574Z,-7.38
2024-02-15T22:04:40.048Z,-7.30
2024-02-15T22:07:08.692Z,-7.29
2024-02-15T22:09:39.067Z,-7.22
2024-02-15T22:12:07.593Z,-7.29
2024-02-15T22:14:35.067Z,-7.32
2024-02-15T22:17:02.647Z,-7.31
2024-02-15T22:19:30.055Z,-7.27
2024-02-15T22:21:57.859Z,-7.29
2024-02-15T22:24:25.258Z,-7.25
2024-02-15T22:26:52.757Z,-7.13
2024-02-15T22:29:19.967Z,-7.12
2024-02-15T22:31:47.286Z,-7.12
2024-02-15T22:34:15.890Z,-7.09
2024-02-15T22:36:43.334Z,-7.00
2024-02-15T22:39:11.719Z,-6.88
2024-02-15T22:41:39.248Z,-6.95
2024-02-15T22:44:06.526Z,-6.90
2024-02-15T22:46:33.947Z,-6.89
2024-02-15T22:49:01.487Z,-6.88
2024-02-15T22:51:29.243Z,-6.78
2024-02-15T22:53:56.581Z,-6.76
2024-02-15T22:56:24.116Z,-6.77
2024-02-15T22:58:51.365Z,-6.74
2024-02-15T23:01:18.659Z,-6.72
2024-02-15T23:03:46.134Z,-6.68
2024-02-15T23:06:13.709Z,-6.79
2024-02-15T23:08:41.241Z,-6.73
2024-02-15T23:11:08.665Z,-6.77
2024-02-15T23:13:37.397Z,-6.84
2024-02-15T23:16:05.674Z,-6.93
2024-02-15T23:18:33.082Z,-6.88
2024-02-15T23:21:00.711Z,-6.80
2024-02-15T23:23:28.119Z,-6.80
2024-02-15T23:25:55.470Z,-6.90
2024-02-15T23:28:22.703Z,-6.87
2024-02-15T23:30:50.662Z,-6.81
2024-02-15T23:33:21.025Z,-6.82
2024-02-15T23:36:08.795Z,-6.85
2024-02-15T23:38:55.064Z,-6.91
2024-02-15T23:41:22.613Z,-6.86
2024-02-15T23:43:50.475Z,-6.86
2024-02-15T23:46:17.701Z,-6.87
2024-02-15T23:48:45.373Z,-6.95
2024-02-15T23:51:12.824Z,-6.94
2024-02-15T23:53:41.484Z,-6.93
2024-02-15T23:56:09.858Z,-7.00
2024-02-15T23:58:37.383Z,-7.08
